sensor_id;sensor_type;location;lat;lon;timestamp;temperature;humidity
25825;DHT22;13658;44.534;18.694;2024-01-15T00:00:44;-2.40;99.90
25825;DHT22;13658;44.534;18.694;2024-01-15T00:03:10;-2.30;99.90
25825;DHT22;13658;44.534;18.694;2024-01-15T00:05:36;-2.40;99.90
25825;DHT22;13658;44.534;18.694;2024-01-15T00:08:02;-2.50;99.90
25825;DHT22;13658;44.534;18.694;2024-01-15T00:10:28;-2.60;99.90
25825;DHT22;13658;44.534;18.694;2024-01-15T00:12:54;-2.50;99.90
25825;DHT22;13658;44.534;18.694;2024-01-15T00:15:20;-2.50;99.90
25825;DHT22;13658;44.534;18.694;2024-01-15T00:17:46;-2.70;99.90
25825;DHT22;13658;44.534;18.694;2024-01-15T00:20:12;-2.60;99.90
25825;DHT22;13658;44.534;18.694;2024-01-15T00:22:38;-2.40;99.90
25825;DHT22;13658;44.534;18.694;2024-01-15T00:25:04;-2.50;99.90
25825;DHT22;13658;44.534;18.694;2024-01-15T00:27:30;-2.40;99.90
25825;DHT22;13658;44.534;18.694;2024-01-15T00:29:56;-2.40;99.90
25825;DHT22;13658;44.534;18.694;2024-01-15T00:32:22;-2.40;99.90
25825;DHT22;13658;44.534;18.694;2024-01-15T00:34:48;-2.50;99.90
25825;DHT22;13658;44.534;18.694;2024-01-15T00:37:14;-2.40;99.90
25825;DHT22;13658;44.534;18.694;2024-01-15T00:39:40;-2.40;99.90
25825;DHT22;13658;44.534;18.694;2024-01-15T00:42:06;-2.30;99.90
25825;DHT22;13658;44.534;18.694;2024-01-15T00:44:32;-2.40;99.90
25825;DHT22;13658;44.534;18.694;2024-01-15T00:46:57;-2.40;99.90
25825;DHT22;13658;44.534;18.694;2024-01-15T00:49:23;-2.60;99.90
25825;DHT22;13658;44.534;18.694;2024-01-15T00:51:50;-2.50;99.90
25825;DHT22;13658;44.534;18.694;2024-01-15T00:54:15;-2.80;99.90
25825;DHT22;13658;44.534;18.694;2024-01-15T00:56:41;-2.80;99.90
25825;DHT22;13658;44.534;18.694;2024-01-15T00:59:07;-3.00;99.90
25825;DHT22;13658;44.534;18.694;2024-01-15T01:01:36;-2.80;99.90
25825;DHT22;13658;44.534;18.694;2024-01-15T01:04:03;-2.70;99.90
25825;DHT22;13658;44.534;18.694;2024-01-15T01:06:29;-2.70;99.90
25825;DHT22;13658;44.534;18.694;2024-01-15T01:08:55;-2.60;99.90
25825;DHT22;13658;44.534;18.694;2024-01-15T01:11:21;-2.70;99.90
25825;DHT22;13658;44.534;18.694;2024-01-15T01:13:47;-2.70;99.90
25825;DHT22;13658;44.534;18.694;2024-01-15T01:16:13;-2.70;99.90
25825;DHT22;13658;44.534;18.694;2024-01-15T01:18:39;-2.70;99.90
25825;DHT22;13658;44.534;18.694;2024-01-15T01:21:05;-2.70;99.90
25825;DHT22;13658;44.534;18.694;2024-01-15T01:23:30;-2.70;99.90
25825;DHT22;13658;44.534;18.694;2024-01-15T01:25:56;-2.80;99.90
25825;DHT22;13658;44.534;18.694;2024-01-15T01:28:22;-2.90;99.90
25825;DHT22;13658;44.534;18.694;2024-01-15T01:30:48;-2.80;99.90
25825;DHT22;13658;44.534;18.694;2024-01-15T01:33:14;-3.00;99.90
25825;DHT22;13658;44.534;18.694;2024-01-15T01:35:41;-3.00;99.90
25825;DHT22;13658;44.534;18.694;2024-01-15T01:38:07;-2.90;99.90
25825;DHT22;13658;44.534;18.694;2024-01-15T01:40:33;-2.80;99.90
25825;DHT22;13658;44.534;18.694;2024-01-15T01:42:59;-2.90;99.90
25825;DHT22;13658;44.534;18.694;2024-01-15T01:45:25;-2.80;99.90
25825;DHT22;13658;44.534;18.694;2024-01-15T01:47:51;-2.80;99.90
25825;DHT22;13658;44.534;18.694;2024-01-15T01:50:17;-2.80;99.90
25825;DHT22;13658;44.534;18.694;2024-01-15T01:52:43;-2.70;99.90
25825;DHT22;13658;44.534;18.694;2024-01-15T01:55:09;-2.70;99.90
25825;DHT22;13658;44.534;18.694;2024-01-15T01:57:36;-2.60;99.90
25825;DHT22;13658;44.534;18.694;2024-01-15T02:00:03;-2.70;99.90
25825;DHT22;13658;44.534;18.694;2024-01-15T02:02:37;-2.60;99.90
25825;DHT22;13658;44.534;18.694;2024-01-15T02:05:04;-2.50;99.90
25825;DHT22;13658;44.534;18.694;2024-01-15T02:07:31;-2.50;99.90
25825;DHT22;13658;44.534;18.694;2024-01-15T02:09:57;-2.50;99.90
25825;DHT22;13658;44.534;18.694;2024-01-15T02:12:23;-2.80;99.90
25825;DHT22;13658;44.534;18.694;2024-01-15T02:14:49;-2.80;99.90
25825;DHT22;13658;44.534;18.694;2024-01-15T02:17:15;-2.60;99.90
25825;DHT22;13658;44.534;18.694;2024-01-15T02:19:41;-2.60;99.90
25825;DHT22;13658;44.534;18.694;2024-01-15T02:22:07;-2.60;99.90
25825;DHT22;13658;44.534;18.694;2024-01-15T02:24:33;-2.70;99.90
25825;DHT22;13658;44.534;18.694;2024-01-15T02:26:59;-2.60;99.90
25825;DHT22;13658;44.534;18.694;2024-01-15T02:29:25;-2.60;99.90
25825;DHT22;13658;44.534;18.694;2024-01-15T02:31:51;-2.70;99.90
25825;DHT22;13658;44.534;18.694;2024-01-15T02:34:17;-2.80;99.90
25825;DHT22;13658;44.534;18.694;2024-01-15T02:36:43;-2.90;99.90
25825;DHT22;13658;44.534;18.694;2024-01-15T02:39:09;-3.00;99.90
25825;DHT22;13658;44.534;18.694;2024-01-15T02:41:35;-3.00;99.90
25825;DHT22;13658;44.534;18.694;2024-01-15T02:44:01;-3.00;99.90
25825;DHT22;13658;44.534;18.694;2024-01-15T02:46:41;-2.80;99.90
25825;DHT22;13658;44.534;18.694;2024-01-15T02:49:07;-2.80;99.90
25825;DHT22;13658;44.534;18.694;2024-01-15T02:51:33;-2.70;99.90
25825;DHT22;13658;44.534;18.694;2024-01-15T02:53:59;-2.60;99.90
25825;DHT22;13658;44.534;18.694;2024-01-15T02:56:24;-2.50;99.90
25825;DHT22;13658;44.534;18.694;2024-01-15T02:58:50;-2.40;99.90
25825;DHT22;13658;44.534;18.694;2024-01-15T03:01:19;-2.40;99.90
25825;DHT22;13658;44.534;18.694;2024-01-15T03:03:46;-2.40;99.90
25825;DHT22;13658;44.534;18.694;2024-01-15T03:06:12;-2.40;99.90
25825;DHT22;13658;44.534;18.694;2024-01-15T03:08:38;-2.40;99.90
25825;DHT22;13658;44.534;18.694;2024-01-15T03:11:03;-2.50;99.90
25825;DHT22;13658;44.534;18.694;2024-01-15T03:13:29;-2.50;99.90
25825;DHT22;13658;44.534;18.694;2024-01-15T03:15:55;-2.60;99.90
25825;DHT22;13658;44.534;18.694;2024-01-15T03:18:21;-2.60;99.90
25825;DHT22;13658;44.534;18.694;2024-01-15T03:20:47;-2.50;99.90
25825;DHT22;13658;44.534;18.694;2024-01-15T03:23:13;-2.50;99.90
25825;DHT22;13658;44.534;18.694;2024-01-15T03:25:39;-2.50;99.90
25825;DHT22;13658;44.534;18.694;2024-01-15T03:28:05;-2.40;99.90
25825;DHT22;13658;44.534;18.694;2024-01-15T03:30:31;-2.40;99.90
25825;DHT22;13658;44.534;18.694;2024-01-15T03:32:56;-2.40;99.90
25825;DHT22;13658;44.534;18.694;2024-01-15T03:35:22;-2.40;99.90
25825;DHT22;13658;44.534;18.694;2024-01-15T03:37:48;-2.60;99.90
25825;DHT22;13658;44.534;18.694;2024-01-15T03:40:14;-2.70;99.90
25825;DHT22;13658;44.534;18.694;2024-01-15T03:42:40;-2.50;99.90
25825;DHT22;13658;44.534;18.694;2024-01-15T03:45:06;-2.50;99.90
25825;DHT22;13658;44.534;18.694;2024-01-15T03:47:32;-2.50;99.90
25825;DHT22;13658;44.534;18.694;2024-01-15T03:49:58;-2.60;99.90
25825;DHT22;13658;44.534;18.694;2024-01-15T03:52:24;-2.80;99.90
25825;DHT22;13658;44.534;18.694;2024-01-15T03:54:50;-2.80;99.90
25825;DHT22;13658;44.534;18.694;2024-01-15T03:57:16;-2.70;99.90
25825;DHT22;13658;44.534;18.694;2024-01-15T03:59:42;-2.50;99.90
25825;DHT22;13658;44.534;18.694;2024-01-15T04:02:08;-2.50;99.90
25825;DHT22;13658;44.534;18.694;2024-01-15T04:04:34;-2.50;99.90
25825;DHT22;13658;44.534;18.694;2024-01-15T04:07:00;-2.50;99.90
25825;DHT22;13658;44.534;18.694;2024-01-15T04:09:26;-2.40;99.90
25825;DHT22;13658;44.534;18.694;2024-01-15T04:11:52;-2.50;99.90
25825;DHT22;13658;44.534;18.694;2024-01-15T04:14:17;-2.50;99.90
25825;DHT22;13658;44.534;18.694;2024-01-15T04:16:43;-2.60;99.90
25825;DHT22;13658;44.534;18.694;2024-01-15T04:19:09;-2.60;99.90
25825;DHT22;13658;44.534;18.694;2024-01-15T04:21:35;-2.50;99.90
25825;DHT22;13658;44.534;18.694;2024-01-15T04:24:01;-2.40;99.90
25825;DHT22;13658;44.534;18.694;2024-01-15T04:26:27;-2.30;99.90
25825;DHT22;13658;44.534;18.694;2024-01-15T04:28:53;-2.30;99.90
25825;DHT22;13658;44.534;18.694;2024-01-15T04:31:26;-2.30;99.90
25825;DHT22;13658;44.534;18.694;2024-01-15T04:33:54;-2.20;99.90
25825;DHT22;13658;44.534;18.694;2024-01-15T04:36:21;-2.10;99.90
25825;DHT22;13658;44.534;18.694;2024-01-15T04:38:47;-2.00;99.90
25825;DHT22;13658;44.534;18.694;2024-01-15T04:41:14;-2.00;99.90
25825;DHT22;13658;44.534;18.694;2024-01-15T04:43:41;-2.20;99.90
25825;DHT22;13658;44.534;18.694;2024-01-15T04:46:07;-2.10;99.90
25825;DHT22;13658;44.534;18.694;2024-01-15T04:48:34;-2.00;99.90
25825;DHT22;13658;44.534;18.694;2024-01-15T04:51:00;-2.00;99.90
25825;DHT22;13658;44.534;18.694;2024-01-15T04:53:26;-1.90;99.90
25825;DHT22;13658;44.534;18.694;2024-01-15T04:55:52;-1.80;99.90
25825;DHT22;13658;44.534;18.694;2024-01-15T04:58:18;-1.80;99.90
25825;DHT22;13658;44.534;18.694;2024-01-15T05:00:44;-1.70;99.90
25825;DHT22;13658;44.534;18.694;2024-01-15T05:03:10;-1.80;99.90
25825;DHT22;13658;44.534;18.694;2024-01-15T05:05:36;-1.70;99.90
25825;DHT22;13658;44.534;18.694;2024-01-15T05:08:02;-1.60;99.90
25825;DHT22;13658;44.534;18.694;2024-01-15T05:10:29;-1.60;99.90
25825;DHT22;13658;44.534;18.694;2024-01-15T05:12:55;-1.50;99.90
25825;DHT22;13658;44.534;18.694;2024-01-15T05:15:21;-1.40;99.90
25825;DHT22;13658;44.534;18.694;2024-01-15T05:17:47;-1.50;99.90
25825;DHT22;13658;44.534;18.694;2024-01-15T05:20:13;-1.50;99.90
25825;DHT22;13658;44.534;18.694;2024-01-15T05:22:39;-1.60;99.90
25825;DHT22;13658;44.534;18.694;2024-01-15T05:25:05;-1.50;99.90
25825;DHT22;13658;44.534;18.694;2024-01-15T05:27:31;-1.40;99.90
25825;DHT22;13658;44.534;18.694;2024-01-15T05:29:57;-1.20;99.90
25825;DHT22;13658;44.534;18.694;2024-01-15T05:32:23;-1.20;99.90
25825;DHT22;13658;44.534;18.694;2024-01-15T05:34:50;-1.20;99.90
25825;DHT22;13658;44.534;18.694;2024-01-15T05:37:16;-1.10;99.90
25825;DHT22;13658;44.534;18.694;2024-01-15T05:39:42;-1.00;99.90
25825;DHT22;13658;44.534;18.694;2024-01-15T05:42:08;-0.90;99.90
25825;DHT22;13658;44.534;18.694;2024-01-15T05:44:34;-0.90;99.90
25825;DHT22;13658;44.534;18.694;2024-01-15T05:47:00;-0.90;99.90
25825;DHT22;13658;44.534;18.694;2024-01-15T05:49:26;-0.90;99.90
25825;DHT22;13658;44.534;18.694;2024-01-15T05:51:52;-0.90;99.90
25825;DHT22;13658;44.534;18.694;2024-01-15T05:54:19;-0.80;99.90
25825;DHT22;13658;44.534;18.694;2024-01-15T05:56:45;-0.90;99.90
25825;DHT22;13658;44.534;18.694;2024-01-15T05:59:12;-0.90;99.90
25825;DHT22;13658;44.534;18.694;2024-01-15T06:01:38;-0.90;99.90
25825;DHT22;13658;44.534;18.694;2024-01-15T06:04:04;-0.80;99.90
25825;DHT22;13658;44.534;18.694;2024-01-15T06:06:30;-0.80;99.90
25825;DHT22;13658;44.534;18.694;2024-01-15T06:08:56;-0.70;99.90
25825;DHT22;13658;44.534;18.694;2024-01-15T06:11:30;-0.60;99.90
25825;DHT22;13658;44.534;18.694;2024-01-15T06:13:56;-0.60;99.90
25825;DHT22;13658;44.534;18.694;2024-01-15T06:16:22;-0.50;99.90
25825;DHT22;13658;44.534;18.694;2024-01-15T06:18:49;-0.40;99.90
25825;DHT22;13658;44.534;18.694;2024-01-15T06:21:15;-0.50;99.90
25825;DHT22;13658;44.534;18.694;2024-01-15T06:23:41;-0.40;99.90
25825;DHT22;13658;44.534;18.694;2024-01-15T06:26:07;-0.50;99.90
25825;DHT22;13658;44.534;18.694;2024-01-15T06:28:33;-0.50;99.90
25825;DHT22;13658;44.534;18.694;2024-01-15T06:31:00;-0.40;99.90
25825;DHT22;13658;44.534;18.694;2024-01-15T06:33:29;-0.30;99.90
25825;DHT22;13658;44.534;18.694;2024-01-15T06:35:55;-0.10;99.90
25825;DHT22;13658;44.534;18.694;2024-01-15T06:38:22;-0.10;99.90
25825;DHT22;13658;44.534;18.694;2024-01-15T06:40:49;-0.10;99.90
25825;DHT22;13658;44.534;18.694;2024-01-15T06:43:15;-0.10;99.90
25825;DHT22;13658;44.534;18.694;2024-01-15T06:45:41;-0.20;99.90
25825;DHT22;13658;44.534;18.694;2024-01-15T06:48:07;0.00;99.90
25825;DHT22;13658;44.534;18.694;2024-01-15T06:50:33;0.10;99.90
25825;DHT22;13658;44.534;18.694;2024-01-15T06:52:59;0.20;99.90
25825;DHT22;13658;44.534;18.694;2024-01-15T06:55:25;0.20;99.90
25825;DHT22;13658;44.534;18.694;2024-01-15T06:57:51;0.30;99.90
25825;DHT22;13658;44.534;18.694;2024-01-15T07:00:18;0.40;99.90
25825;DHT22;13658;44.534;18.694;2024-01-15T07:02:45;0.50;99.90
25825;DHT22;13658;44.534;18.694;2024-01-15T07:05:11;0.50;99.90
25825;DHT22;13658;44.534;18.694;2024-01-15T07:07:37;0.50;99.90
25825;DHT22;13658;44.534;18.694;2024-01-15T07:10:04;0.40;99.90
25825;DHT22;13658;44.534;18.694;2024-01-15T07:12:31;0.40;99.90
25825;DHT22;13658;44.534;18.694;2024-01-15T07:14:57;0.40;99.90
25825;DHT22;13658;44.534;18.694;2024-01-15T07:17:23;0.50;99.90
25825;DHT22;13658;44.534;18.694;2024-01-15T07:19:48;0.60;99.90
25825;DHT22;13658;44.534;18.694;2024-01-15T07:22:15;0.80;99.90
25825;DHT22;13658;44.534;18.694;2024-01-15T07:24:43;0.70;99.90
25825;DHT22;13658;44.534;18.694;2024-01-15T07:27:11;0.70;99.90
25825;DHT22;13658;44.534;18.694;2024-01-15T07:29:37;0.70;99.90
25825;DHT22;13658;44.534;18.694;2024-01-15T07:32:03;0.70;99.90
25825;DHT22;13658;44.534;18.694;2024-01-15T07:34:30;0.90;99.90
25825;DHT22;13658;44.534;18.694;2024-01-15T07:36:57;1.10;99.90
25825;DHT22;13658;44.534;18.694;2024-01-15T07:39:23;1.30;99.90
25825;DHT22;13658;44.534;18.694;2024-01-15T07:41:50;1.30;99.90
25825;DHT22;13658;44.534;18.694;2024-01-15T07:44:17;1.30;99.90
25825;DHT22;13658;44.534;18.694;2024-01-15T07:46:46;1.20;99.90
25825;DHT22;13658;44.534;18.694;2024-01-15T07:49:12;1.20;99.90
25825;DHT22;13658;44.534;18.694;2024-01-15T07:51:38;1.20;99.90
25825;DHT22;13658;44.534;18.694;2024-01-15T07:54:06;1.20;99.90
25825;DHT22;13658;44.534;18.694;2024-01-15T07:56:33;1.30;99.90
25825;DHT22;13658;44.534;18.694;2024-01-15T07:58:59;1.50;99.90
25825;DHT22;13658;44.534;18.694;2024-01-15T08:01:25;1.60;99.90
25825;DHT22;13658;44.534;18.694;2024-01-15T08:03:51;1.50;99.90
25825;DHT22;13658;44.534;18.694;2024-01-15T08:06:17;1.60;99.90
25825;DHT22;13658;44.534;18.694;2024-01-15T08:08:43;1.70;99.90
25825;DHT22;13658;44.534;18.694;2024-01-15T08:11:09;1.80;99.90
25825;DHT22;13658;44.534;18.694;2024-01-15T08:13:35;1.90;99.90
25825;DHT22;13658;44.534;18.694;2024-01-15T08:16:02;2.00;99.90
25825;DHT22;13658;44.534;18.694;2024-01-15T08:18:28;1.90;99.90
25825;DHT22;13658;44.534;18.694;2024-01-15T08:20:54;2.00;99.90
25825;DHT22;13658;44.534;18.694;2024-01-15T08:23:20;2.00;99.90
25825;DHT22;13658;44.534;18.694;2024-01-15T08:25:47;2.00;99.90
25825;DHT22;13658;44.534;18.694;2024-01-15T08:28:13;2.00;99.90
25825;DHT22;13658;44.534;18.694;2024-01-15T08:30:39;2.00;99.90
25825;DHT22;13658;44.534;18.694;2024-01-15T08:33:05;2.10;99.90
25825;DHT22;13658;44.534;18.694;2024-01-15T08:35:31;2.00;99.90
25825;DHT22;13658;44.534;18.694;2024-01-15T08:40:58;2.30;99.90
25825;DHT22;13658;44.534;18.694;2024-01-15T08:43:26;2.40;99.90
25825;DHT22;13658;44.534;18.694;2024-01-15T08:45:53;2.40;99.90
25825;DHT22;13658;44.534;18.694;2024-01-15T08:48:19;2.40;99.90
25825;DHT22;13658;44.534;18.694;2024-01-15T08:50:45;2.40;99.90
25825;DHT22;13658;44.534;18.694;2024-01-15T08:53:14;2.40;99.90
25825;DHT22;13658;44.534;18.694;2024-01-15T08:55:40;2.50;99.90
25825;DHT22;13658;44.534;18.694;2024-01-15T08:58:10;2.60;99.90
25825;DHT22;13658;44.534;18.694;2024-01-15T09:00:36;2.80;99.90
25825;DHT22;13658;44.534;18.694;2024-01-15T09:03:02;3.00;99.90
25825;DHT22;13658;44.534;18.694;2024-01-15T09:05:28;2.90;99.90
25825;DHT22;13658;44.534;18.694;2024-01-15T09:07:55;2.70;99.90
25825;DHT22;13658;44.534;18.694;2024-01-15T09:10:21;2.70;99.90
25825;DHT22;13658;44.534;18.694;2024-01-15T09:12:47;2.90;99.90
25825;DHT22;13658;44.534;18.694;2024-01-15T09:15:15;3.10;99.90
25825;DHT22;13658;44.534;18.694;2024-01-15T09:17:41;3.10;99.90
25825;DHT22;13658;44.534;18.694;2024-01-15T09:20:07;3.20;99.90
25825;DHT22;13658;44.534;18.694;2024-01-15T09:22:33;3.10;99.90
25825;DHT22;13658;44.534;18.694;2024-01-15T09:24:59;3.20;99.90
25825;DHT22;13658;44.534;18.694;2024-01-15T09:27:25;3.30;99.90
25825;DHT22;13658;44.534;18.694;2024-01-15T09:29:54;3.40;99.90
25825;DHT22;13658;44.534;18.694;2024-01-15T09:32:20;3.60;99.90
25825;DHT22;13658;44.534;18.694;2024-01-15T09:34:46;3.70;99.90
25825;DHT22;13658;44.534;18.694;2024-01-15T09:37:13;3.90;99.90
25825;DHT22;13658;44.534;18.694;2024-01-15T09:39:40;3.90;99.90
25825;DHT22;13658;44.534;18.694;2024-01-15T09:42:06;4.10;99.90
25825;DHT22;13658;44.534;18.694;2024-01-15T09:44:32;4.30;99.90
25825;DHT22;13658;44.534;18.694;2024-01-15T09:46:59;4.10;99.90
25825;DHT22;13658;44.534;18.694;2024-01-15T09:49:25;4.40;99.90
25825;DHT22;13658;44.534;18.694;2024-01-15T09:51:51;4.10;99.90
25825;DHT22;13658;44.534;18.694;2024-01-15T09:54:17;4.00;99.90
25825;DHT22;13658;44.534;18.694;2024-01-15T09:56:47;4.10;99.90
25825;DHT22;13658;44.534;18.694;2024-01-15T09:59:16;4.20;99.90
25825;DHT22;13658;44.534;18.694;2024-01-15T10:01:44;4.20;99.90
25825;DHT22;13658;44.534;18.694;2024-01-15T10:04:11;4.40;99.90
25825;DHT22;13658;44.534;18.694;2024-01-15T10:06:38;4.30;99.90
25825;DHT22;13658;44.534;18.694;2024-01-15T10:09:05;4.30;99.90
25825;DHT22;13658;44.534;18.694;2024-01-15T10:11:33;4.30;99.90
25825;DHT22;13658;44.534;18.694;2024-01-15T10:14:01;4.50;99.90
25825;DHT22;13658;44.534;18.694;2024-01-15T10:16:27;4.60;99.90
25825;DHT22;13658;44.534;18.694;2024-01-15T10:18:53;4.50;99.90
25825;DHT22;13658;44.534;18.694;2024-01-15T10:21:22;4.50;99.90
25825;DHT22;13658;44.534;18.694;2024-01-15T10:23:49;4.50;99.90
25825;DHT22;13658;44.534;18.694;2024-01-15T10:26:15;4.40;99.90
25825;DHT22;13658;44.534;18.694;2024-01-15T10:28:41;4.30;99.90
25825;DHT22;13658;44.534;18.694;2024-01-15T10:31:08;4.40;99.90
25825;DHT22;13658;44.534;18.694;2024-01-15T10:33:36;4.50;99.90
25825;DHT22;13658;44.534;18.694;2024-01-15T10:36:03;4.60;99.90
25825;DHT22;13658;44.534;18.694;2024-01-15T10:38:36;4.60;99.90
25825;DHT22;13658;44.534;18.694;2024-01-15T10:41:02;4.60;99.90
25825;DHT22;13658;44.534;18.694;2024-01-15T10:45:54;4.50;99.90
25825;DHT22;13658;44.534;18.694;2024-01-15T10:48:20;4.50;99.90
25825;DHT22;13658;44.534;18.694;2024-01-15T10:50:47;4.50;99.90
25825;DHT22;13658;44.534;18.694;2024-01-15T10:53:15;4.40;99.90
25825;DHT22;13658;44.534;18.694;2024-01-15T10:55:42;4.50;99.90
25825;DHT22;13658;44.534;18.694;2024-01-15T10:58:10;4.50;99.90
25825;DHT22;13658;44.534;18.694;2024-01-15T11:00:36;4.50;99.90
25825;DHT22;13658;44.534;18.694;2024-01-15T11:03:06;4.60;99.90
25825;DHT22;13658;44.534;18.694;2024-01-15T11:05:41;4.50;99.90
25825;DHT22;13658;44.534;18.694;2024-01-15T11:08:07;4.60;99.90
25825;DHT22;13658;44.534;18.694;2024-01-15T11:10:48;4.60;99.90
25825;DHT22;13658;44.534;18.694;2024-01-15T11:16:00;4.50;99.90
25825;DHT22;13658;44.534;18.694;2024-01-15T11:18:28;4.30;99.90
25825;DHT22;13658;44.534;18.694;2024-01-15T11:23:58;4.50;99.90
25825;DHT22;13658;44.534;18.694;2024-01-15T11:29:10;4.30;99.90
25825;DHT22;13658;44.534;18.694;2024-01-15T11:32:00;4.40;99.90
25825;DHT22;13658;44.534;18.694;2024-01-15T11:34:53;4.30;99.90
25825;DHT22;13658;44.534;18.694;2024-01-15T11:37:20;4.00;99.90
25825;DHT22;13658;44.534;18.694;2024-01-15T11:39:46;4.10;99.90
25825;DHT22;13658;44.534;18.694;2024-01-15T11:42:13;4.00;99.90
25825;DHT22;13658;44.534;18.694;2024-01-15T11:44:40;4.30;99.90
25825;DHT22;13658;44.534;18.694;2024-01-15T11:47:07;4.30;99.90
25825;DHT22;13658;44.534;18.694;2024-01-15T11:50:04;4.10;99.90
25825;DHT22;13658;44.534;18.694;2024-01-15T11:52:36;4.30;99.90
25825;DHT22;13658;44.534;18.694;2024-01-15T11:55:11;4.40;99.90
25825;DHT22;13658;44.534;18.694;2024-01-15T12:00:09;4.50;99.90
25825;DHT22;13658;44.534;18.694;2024-01-15T12:02:42;4.60;99.90
25825;DHT22;13658;44.534;18.694;2024-01-15T12:05:10;4.80;99.90
25825;DHT22;13658;44.534;18.694;2024-01-15T12:07:39;5.00;99.90
25825;DHT22;13658;44.534;18.694;2024-01-15T12:10:12;4.70;99.90
25825;DHT22;13658;44.534;18.694;2024-01-15T12:15:16;4.80;99.90
25825;DHT22;13658;44.534;18.694;2024-01-15T12:17:42;4.60;99.90
25825;DHT22;13658;44.534;18.694;2024-01-15T12:20:08;4.70;99.90
25825;DHT22;13658;44.534;18.694;2024-01-15T12:22:35;4.80;99.90
25825;DHT22;13658;44.534;18.694;2024-01-15T12:25:01;5.10;99.90
25825;DHT22;13658;44.534;18.694;2024-01-15T12:27:27;4.90;99.90
25825;DHT22;13658;44.534;18.694;2024-01-15T12:29:53;5.00;99.90
25825;DHT22;13658;44.534;18.694;2024-01-15T12:32:19;5.20;99.90
25825;DHT22;13658;44.534;18.694;2024-01-15T12:34:49;5.20;99.90
25825;DHT22;13658;44.534;18.694;2024-01-15T12:37:17;5.50;99.90
25825;DHT22;13658;44.534;18.694;2024-01-15T12:39:43;5.50;99.90
25825;DHT22;13658;44.534;18.694;2024-01-15T12:42:10;5.50;99.90
25825;DHT22;13658;44.534;18.694;2024-01-15T12:44:38;5.50;99.90
25825;DHT22;13658;44.534;18.694;2024-01-15T12:47:05;5.80;99.90
25825;DHT22;13658;44.534;18.694;2024-01-15T12:49:32;5.80;99.90
25825;DHT22;13658;44.534;18.694;2024-01-15T12:51:59;5.70;99.90
25825;DHT22;13658;44.534;18.694;2024-01-15T12:54:25;5.60;99.90
25825;DHT22;13658;44.534;18.694;2024-01-15T12:56:52;5.60;99.90
25825;DHT22;13658;44.534;18.694;2024-01-15T12:59:18;5.60;99.90
25825;DHT22;13658;44.534;18.694;2024-01-15T13:01:45;5.60;99.90
25825;DHT22;13658;44.534;18.694;2024-01-15T13:04:22;5.50;99.90
25825;DHT22;13658;44.534;18.694;2024-01-15T13:06:49;5.50;99.90
25825;DHT22;13658;44.534;18.694;2024-01-15T13:09:16;5.50;99.90
25825;DHT22;13658;44.534;18.694;2024-01-15T13:11:46;5.50;99.90
25825;DHT22;13658;44.534;18.694;2024-01-15T13:14:12;5.50;99.90
25825;DHT22;13658;44.534;18.694;2024-01-15T13:16:41;5.70;99.90
25825;DHT22;13658;44.534;18.694;2024-01-15T13:19:09;5.80;99.90
25825;DHT22;13658;44.534;18.694;2024-01-15T13:21:40;5.70;99.90
25825;DHT22;13658;44.534;18.694;2024-01-15T13:24:07;5.70;99.90
25825;DHT22;13658;44.534;18.694;2024-01-15T13:26:36;5.80;99.90
25825;DHT22;13658;44.534;18.694;2024-01-15T13:29:06;5.80;99.90
25825;DHT22;13658;44.534;18.694;2024-01-15T13:31:32;5.70;99.90
25825;DHT22;13658;44.534;18.694;2024-01-15T13:33:59;5.60;99.90
25825;DHT22;13658;44.534;18.694;2024-01-15T13:36:28;5.70;99.90
25825;DHT22;13658;44.534;18.694;2024-01-15T13:38:54;5.70;99.90
25825;DHT22;13658;44.534;18.694;2024-01-15T13:41:21;5.50;99.90
25825;DHT22;13658;44.534;18.694;2024-01-15T13:43:54;5.50;99.90
25825;DHT22;13658;44.534;18.694;2024-01-15T13:46:22;5.40;99.90
25825;DHT22;13658;44.534;18.694;2024-01-15T13:48:49;5.40;99.90
25825;DHT22;13658;44.534;18.694;2024-01-15T13:51:15;5.30;99.90
25825;DHT22;13658;44.534;18.694;2024-01-15T13:53:41;5.10;99.90
25825;DHT22;13658;44.534;18.694;2024-01-15T13:56:07;5.10;99.90
25825;DHT22;13658;44.534;18.694;2024-01-15T13:58:35;5.20;99.90
25825;DHT22;13658;44.534;18.694;2024-01-15T14:01:02;5.10;99.90
25825;DHT22;13658;44.534;18.694;2024-01-15T14:03:30;5.30;99.90
25825;DHT22;13658;44.534;18.694;2024-01-15T14:05:55;5.20;99.90
25825;DHT22;13658;44.534;18.694;2024-01-15T14:08:21;5.20;99.90
25825;DHT22;13658;44.534;18.694;2024-01-15T14:10:47;5.20;99.90
25825;DHT22;13658;44.534;18.694;2024-01-15T14:13:13;5.30;99.90
25825;DHT22;13658;44.534;18.694;2024-01-15T14:15:39;5.30;99.90
25825;DHT22;13658;44.534;18.694;2024-01-15T14:18:05;5.20;99.90
25825;DHT22;13658;44.534;18.694;2024-01-15T14:20:31;5.10;99.90
25825;DHT22;13658;44.534;18.694;2024-01-15T14:22:58;5.10;99.90
25825;DHT22;13658;44.534;18.694;2024-01-15T14:25:24;5.00;99.90
25825;DHT22;13658;44.534;18.694;2024-01-15T14:27:50;4.90;99.90
25825;DHT22;13658;44.534;18.694;2024-01-15T14:30:17;4.70;99.90
25825;DHT22;13658;44.534;18.694;2024-01-15T14:32:43;4.70;99.90
25825;DHT22;13658;44.534;18.694;2024-01-15T14:35:09;4.80;99.90
25825;DHT22;13658;44.534;18.694;2024-01-15T14:37:38;4.80;99.90
25825;DHT22;13658;44.534;18.694;2024-01-15T14:42:45;4.80;99.90
25825;DHT22;13658;44.534;18.694;2024-01-15T14:45:11;4.80;99.90
25825;DHT22;13658;44.534;18.694;2024-01-15T14:47:40;4.80;99.90
25825;DHT22;13658;44.534;18.694;2024-01-15T14:50:08;4.80;99.90
25825;DHT22;13658;44.534;18.694;2024-01-15T14:52:36;4.80;99.90
25825;DHT22;13658;44.534;18.694;2024-01-15T14:55:02;4.80;99.90
25825;DHT22;13658;44.534;18.694;2024-01-15T14:57:29;4.80;99.90
25825;DHT22;13658;44.534;18.694;2024-01-15T14:59:55;4.90;99.90
25825;DHT22;13658;44.534;18.694;2024-01-15T15:02:22;4.90;99.90
25825;DHT22;13658;44.534;18.694;2024-01-15T15:04:49;4.80;99.90
25825;DHT22;13658;44.534;18.694;2024-01-15T15:07:15;4.80;99.90
25825;DHT22;13658;44.534;18.694;2024-01-15T15:09:41;4.80;99.90
25825;DHT22;13658;44.534;18.694;2024-01-15T15:12:07;4.90;99.90
25825;DHT22;13658;44.534;18.694;2024-01-15T15:14:34;4.80;99.90
25825;DHT22;13658;44.534;18.694;2024-01-15T15:17:06;4.80;99.90
25825;DHT22;13658;44.534;18.694;2024-01-15T15:19:32;4.80;99.90
25825;DHT22;13658;44.534;18.694;2024-01-15T15:22:02;4.80;99.90
25825;DHT22;13658;44.534;18.694;2024-01-15T15:24:28;4.70;99.90
25825;DHT22;13658;44.534;18.694;2024-01-15T15:26:54;4.60;99.90
25825;DHT22;13658;44.534;18.694;2024-01-15T15:29:20;4.60;99.90
25825;DHT22;13658;44.534;18.694;2024-01-15T15:31:48;4.60;99.90
25825;DHT22;13658;44.534;18.694;2024-01-15T15:34:14;4.60;99.90
25825;DHT22;13658;44.534;18.694;2024-01-15T15:36:41;4.60;99.90
25825;DHT22;13658;44.534;18.694;2024-01-15T15:39:07;4.60;99.90
25825;DHT22;13658;44.534;18.694;2024-01-15T15:41:33;4.60;99.90
25825;DHT22;13658;44.534;18.694;2024-01-15T15:43:59;4.50;99.90